createdAt,value
2017-11-16T00:00:32.396Z,0
2017-11-16T00:01:34.232Z,0
2017-11-16T00:02:35.889Z,0
2017-11-16T00:03:38.063Z,0
2017-11-16T00:04:39.805Z,0
2017-11-16T00:05:41.530Z,0
2017-11-16T00:06:43.186Z,0
2017-11-16T00:07:44.864Z,0
2017-11-16T00:08:46.559Z,0
2017-11-16T00:09:48.486Z,0
2017-11-16T00:10:50.205Z,0
2017-11-16T00:11:52.029Z,0
2017-11-16T00:12:53.765Z,0
2017-11-16T00:13:55.526Z,0
2017-11-16T00:14:57.351Z,0
2017-11-16T00:15:59.122Z,0
2017-11-16T00:17:00.876Z,0
2017-11-16T00:18:02.951Z,0
2017-11-16T00:19:05.085Z,0
2017-11-16T00:20:06.784Z,0
2017-11-16T00:21:08.527Z,0
2017-11-16T00:22:10.200Z,0
2017-11-16T00:23:12.053Z,0
2017-11-16T00:24:13.905Z,0
2017-11-16T00:25:15.555Z,0
2017-11-16T00:26:17.312Z,0
2017-11-16T00:27:19.112Z,0
2017-11-16T00:28:20.824Z,0
2017-11-16T00:29:22.573Z,0
2017-11-16T00:30:24.354Z,0
2017-11-16T00:31:26.119Z,0
2017-11-16T00:32:27.883Z,0
2017-11-16T00:33:29.652Z,0
2017-11-16T00:34:31.495Z,0
2017-11-16T00:35:33.317Z,0
2017-11-16T00:36:35.040Z,0
2017-11-16T00:37:36.789Z,0
2017-11-16T00:38:38.477Z,0
2017-11-16T00:39:40.216Z,0
2017-11-16T00:40:42.205Z,0
2017-11-16T00:41:43.927Z,0
2017-11-16T00:42:45.651Z,0
2017-11-16T00:43:47.407Z,0
2017-11-16T00:44:49.062Z,0
2017-11-16T00:45:50.524Z,0
2017-11-16T00:46:52.371Z,0
2017-11-16T00:47:54.162Z,0
2017-11-16T00:48:55.961Z,0
2017-11-16T00:49:57.959Z,0
2017-11-16T00:50:59.844Z,0
2017-11-16T00:52:01.554Z,0
2017-11-16T00:53:03.284Z,0
2017-11-16T00:54:05.051Z,0
2017-11-16T00:55:06.749Z,0
2017-11-16T00:56:08.490Z,0
2017-11-16T00:57:10.269Z,0
2017-11-16T00:58:12.037Z,0
2017-11-16T00:59:13.820Z,0
2017-11-16T01:00:15.573Z,0
2017-11-16T01:01:17.429Z,0
2017-11-16T01:02:19.254Z,0
2017-11-16T01:03:21.010Z,0
2017-11-16T01:04:22.798Z,0
2017-11-16T01:05:24.669Z,0
2017-11-16T01:06:26.468Z,0
2017-11-16T01:07:28.428Z,0
2017-11-16T01:08:30.141Z,0
2017-11-16T01:09:31.957Z,0
2017-11-16T01:10:33.948Z,0
2017-11-16T01:11:35.578Z,0
2017-11-16T01:12:37.408Z,0
2017-11-16T01:13:39.091Z,0
2017-11-16T01:14:40.809Z,0
2017-11-16T01:15:42.534Z,0
2017-11-16T01:16:44.326Z,0
2017-11-16T01:17:46.171Z,0
2017-11-16T01:18:47.922Z,0
2017-11-16T01:19:49.694Z,0
2017-11-16T01:20:51.501Z,0
2017-11-16T01:21:53.253Z,0
2017-11-16T01:22:54.953Z,0
2017-11-16T01:23:56.713Z,0
2017-11-16T01:24:58.529Z,0
2017-11-16T01:26:00.315Z,0
2017-11-16T01:27:02.055Z,0
2017-11-16T01:28:03.844Z,0
2017-11-16T01:29:05.872Z,0
2017-11-16T01:30:07.596Z,0
2017-11-16T01:31:09.363Z,0
2017-11-16T01:32:11.051Z,0
2017-11-16T01:33:12.812Z,0
2017-11-16T01:34:14.562Z,0
2017-11-16T01:35:16.304Z,0
2017-11-16T01:36:18.045Z,0
2017-11-16T01:37:19.807Z,0
2017-11-16T01:38:21.515Z,0
2017-11-16T01:39:23.354Z,0
2017-11-16T01:40:25.136Z,0
2017-11-16T01:41:26.857Z,0
2017-11-16T01:42:28.580Z,0
2017-11-16T01:43:30.321Z,0
2017-11-16T01:44:32.130Z,0
2017-11-16T01:45:33.860Z,0
2017-11-16T01:46:35.553Z,0
2017-11-16T01:47:37.355Z,0
2017-11-16T01:48:39.064Z,0
2017-11-16T01:49:40.751Z,0
2017-11-16T01:50:42.665Z,0
2017-11-16T01:51:44.428Z,0
2017-11-16T01:52:46.118Z,0
2017-11-16T01:53:47.954Z,0
2017-11-16T01:54:49.693Z,0
2017-11-16T01:55:51.654Z,0
2017-11-16T01:56:53.350Z,0
2017-11-16T01:57:55.292Z,0
2017-11-16T01:58:57.006Z,0
2017-11-16T01:59:58.740Z,0
2017-11-16T02:01:00.590Z,0
2017-11-16T02:02:02.375Z,0
2017-11-16T02:03:04.039Z,0
2017-11-16T02:04:05.805Z,0
2017-11-16T02:05:07.572Z,0
2017-11-16T02:06:09.377Z,0
2017-11-16T02:07:11.041Z,0
2017-11-16T02:08:12.861Z,0
2017-11-16T02:09:14.573Z,0
2017-11-16T02:10:16.403Z,0
2017-11-16T02:11:18.106Z,0
2017-11-16T02:12:19.826Z,0
2017-11-16T02:13:21.516Z,0
2017-11-16T02:14:23.262Z,0
2017-11-16T02:15:24.998Z,0
2017-11-16T02:16:26.468Z,0
2017-11-16T02:17:28.178Z,0
2017-11-16T02:18:30.205Z,0
2017-11-16T02:19:32.055Z,0
2017-11-16T02:20:33.819Z,0
2017-11-16T02:21:35.666Z,0
2017-11-16T02:22:37.357Z,0
2017-11-16T02:23:39.159Z,0
2017-11-16T02:24:40.915Z,0
2017-11-16T02:25:42.601Z,0
2017-11-16T02:26:44.440Z,0
2017-11-16T02:27:46.097Z,0
2017-11-16T02:28:47.831Z,0
2017-11-16T02:29:49.554Z,0
2017-11-16T02:30:51.222Z,0
2017-11-16T02:31:52.989Z,0
2017-11-16T02:32:54.637Z,0
2017-11-16T02:33:56.342Z,0
2017-11-16T02:34:58.126Z,0
2017-11-16T02:35:59.902Z,0
2017-11-16T02:37:01.755Z,0
2017-11-16T02:38:03.489Z,0
2017-11-16T02:39:05.325Z,0
2017-11-16T02:40:07.099Z,0
2017-11-16T02:41:08.785Z,0
2017-11-16T02:42:10.530Z,0
2017-11-16T02:43:12.250Z,0
2017-11-16T02:44:14.004Z,0
2017-11-16T02:45:15.970Z,0
2017-11-16T02:46:17.679Z,0
2017-11-16T02:47:19.462Z,0
2017-11-16T02:48:21.212Z,0
2017-11-16T02:49:22.980Z,0
2017-11-16T02:50:24.733Z,0
2017-11-16T02:51:26.476Z,0
2017-11-16T02:52:28.240Z,0
2017-11-16T02:53:30.026Z,0
2017-11-16T02:54:31.897Z,0
2017-11-16T02:55:33.692Z,0
2017-11-16T02:56:35.448Z,0
2017-11-16T02:57:37.218Z,0
2017-11-16T02:58:38.942Z,0
2017-11-16T02:59:40.731Z,0
2017-11-16T03:00:42.594Z,0
2017-11-16T03:01:44.368Z,0
2017-11-16T03:02:46.193Z,0
2017-11-16T03:03:48.035Z,0
2017-11-16T03:04:49.812Z,0
2017-11-16T03:05:51.593Z,0
2017-11-16T03:06:53.306Z,0
2017-11-16T03:07:55.056Z,0
2017-11-16T03:08:56.692Z,0
2017-11-16T03:09:58.534Z,0
2017-11-16T03:11:00.214Z,0
2017-11-16T03:12:01.907Z,0
2017-11-16T03:13:03.600Z,0
2017-11-16T03:14:05.528Z,0
2017-11-16T03:15:07.369Z,0
2017-11-16T03:16:09.109Z,0
2017-11-16T03:17:10.830Z,0
2017-11-16T03:18:12.601Z,0
2017-11-16T03:19:14.360Z,0
2017-11-16T03:20:16.107Z,0
2017-11-16T03:21:17.854Z,0
2017-11-16T03:22:19.575Z,0
2017-11-16T03:23:21.266Z,0
2017-11-16T03:24:22.970Z,0
2017-11-16T03:25:24.692Z,0
2017-11-16T03:26:26.400Z,0
2017-11-16T03:27:28.225Z,0
2017-11-16T03:28:29.911Z,0
2017-11-16T03:29:31.620Z,0
2017-11-16T03:30:33.396Z,0
2017-11-16T03:31:35.061Z,0
2017-11-16T03:32:36.735Z,0
2017-11-16T03:33:38.630Z,0
2017-11-16T03:34:40.470Z,0
2017-11-16T03:35:42.274Z,0
2017-11-16T03:36:44.000Z,0
2017-11-16T03:37:45.729Z,0
2017-11-16T03:38:47.476Z,0
2017-11-16T03:39:49.199Z,0
2017-11-16T03:40:50.928Z,0
2017-11-16T03:41:52.623Z,0
2017-11-16T03:42:54.346Z,0
2017-11-16T03:43:56.034Z,0
2017-11-16T03:44:57.859Z,0
2017-11-16T03:45:59.609Z,0
2017-11-16T03:47:01.373Z,0
2017-11-16T03:48:03.188Z,0
2017-11-16T03:49:04.851Z,0
2017-11-16T03:50:06.583Z,0
2017-11-16T03:51:08.360Z,0
2017-11-16T03:52:10.033Z,0
2017-11-16T03:53:11.793Z,0
2017-11-16T03:54:13.542Z,0
2017-11-16T03:55:15.296Z,0
2017-11-16T03:56:17.035Z,0
2017-11-16T03:57:18.740Z,0
2017-11-16T03:58:20.417Z,0
2017-11-16T03:59:22.195Z,0
2017-11-16T04:00:23.934Z,0
2017-11-16T04:01:25.620Z,0
2017-11-16T04:02:27.300Z,0
2017-11-16T04:03:29.107Z,0
2017-11-16T04:04:30.994Z,0
2017-11-16T04:05:32.708Z,0
2017-11-16T04:06:34.476Z,0
2017-11-16T04:07:36.166Z,0
2017-11-16T04:08:37.898Z,0
2017-11-16T04:09:39.664Z,0
2017-11-16T04:10:41.473Z,0
2017-11-16T04:11:43.295Z,0
2017-11-16T04:12:45.082Z,0
2017-11-16T04:13:46.868Z,0
2017-11-16T04:14:48.582Z,0
2017-11-16T04:15:50.298Z,0
2017-11-16T04:16:52.070Z,0
2017-11-16T04:17:53.846Z,0
2017-11-16T04:18:55.657Z,0
2017-11-16T04:19:57.350Z,0
2017-11-16T04:20:59.126Z,0
2017-11-16T04:22:01.012Z,0
2017-11-16T04:23:02.728Z,0
2017-11-16T04:24:04.479Z,0
2017-11-16T04:25:06.291Z,0
2017-11-16T04:26:08.086Z,0
2017-11-16T04:27:09.855Z,0
2017-11-16T04:28:11.653Z,0
2017-11-16T04:29:13.368Z,0
2017-11-16T04:30:15.077Z,0
2017-11-16T04:31:17.121Z,0
2017-11-16T04:32:18.930Z,0
2017-11-16T04:33:20.923Z,0
2017-11-16T04:34:22.631Z,0
2017-11-16T04:35:24.578Z,0
2017-11-16T04:36:26.343Z,0
2017-11-16T04:37:28.097Z,0
2017-11-16T04:38:29.780Z,0
2017-11-16T04:39:31.527Z,0
2017-11-16T04:40:33.351Z,0
2017-11-16T04:41:35.364Z,0
2017-11-16T04:42:37.050Z,0
2017-11-16T04:43:38.741Z,0
2017-11-16T04:44:40.434Z,0
2017-11-16T04:45:42.151Z,0
2017-11-16T04:46:43.840Z,0
2017-11-16T04:47:45.510Z,0
2017-11-16T04:48:47.257Z,0
2017-11-16T04:49:48.959Z,0
2017-11-16T04:50:50.697Z,0
2017-11-16T04:51:52.467Z,0
2017-11-16T04:52:54.174Z,0
2017-11-16T04:53:55.933Z,0
2017-11-16T04:54:57.939Z,0
2017-11-16T04:55:59.726Z,0
2017-11-16T04:57:01.543Z,0
2017-11-16T04:58:03.299Z,0
2017-11-16T04:59:05.033Z,0
2017-11-16T05:00:06.793Z,0
2017-11-16T05:01:08.570Z,0
2017-11-16T05:02:10.345Z,0
2017-11-16T05:03:12.139Z,0
2017-11-16T05:04:13.846Z,0
2017-11-16T05:05:15.564Z,0
2017-11-16T05:06:17.274Z,0
2017-11-16T05:07:19.043Z,0
2017-11-16T05:08:20.851Z,0
2017-11-16T05:09:22.633Z,0
2017-11-16T05:10:24.363Z,0
2017-11-16T05:11:26.106Z,0
2017-11-16T05:12:27.929Z,0
2017-11-16T05:13:29.677Z,0
2017-11-16T05:14:31.507Z,0
2017-11-16T05:15:33.198Z,0
2017-11-16T05:16:35.214Z,0
2017-11-16T05:17:37.052Z,0
2017-11-16T05:18:38.863Z,0
2017-11-16T05:19:40.570Z,0
2017-11-16T05:20:42.306Z,0
2017-11-16T05:21:43.970Z,0
2017-11-16T05:22:45.665Z,0
2017-11-16T05:23:47.438Z,0
2017-11-16T05:24:49.320Z,0
2017-11-16T05:25:51.128Z,0
2017-11-16T05:26:52.967Z,0
2017-11-16T05:27:54.686Z,0
2017-11-16T05:28:56.424Z,0
2017-11-16T05:29:58.231Z,0
2017-11-16T05:30:59.935Z,0
2017-11-16T05:32:01.729Z,0
2017-11-16T05:33:03.442Z,0
2017-11-16T05:34:05.447Z,0
2017-11-16T05:35:07.177Z,0
2017-11-16T05:36:08.951Z,0
2017-11-16T05:37:10.702Z,0
2017-11-16T05:38:12.987Z,0
2017-11-16T05:39:14.753Z,0
2017-11-16T05:40:16.472Z,0
2017-11-16T05:41:18.288Z,0
2017-11-16T05:42:20.013Z,0
2017-11-16T05:43:21.821Z,0
2017-11-16T05:44:23.524Z,0
2017-11-16T05:45:25.296Z,0
2017-11-16T05:46:26.980Z,0
2017-11-16T05:47:28.757Z,0
2017-11-16T05:48:30.511Z,0
2017-11-16T05:49:32.288Z,0
2017-11-16T05:50:34.121Z,0
2017-11-16T05:51:35.948Z,0
2017-11-16T05:52:38.053Z,0
2017-11-16T05:53:39.538Z,0
2017-11-16T05:54:41.246Z,0
2017-11-16T05:55:43.030Z,0
2017-11-16T05:56:44.894Z,0
2017-11-16T05:57:46.344Z,0
2017-11-16T05:58:48.043Z,0
2017-11-16T05:59:49.740Z,0
2017-11-16T06:00:51.404Z,0
2017-11-16T06:01:53.121Z,0
2017-11-16T06:02:54.861Z,0
2017-11-16T06:03:56.532Z,0
2017-11-16T06:04:58.024Z,0
2017-11-16T06:05:59.637Z,0
2017-11-16T06:07:01.401Z,0
2017-11-16T06:08:03.161Z,0
2017-11-16T06:09:04.852Z,0
2017-11-16T06:10:06.520Z,0
2017-11-16T06:11:08.314Z,0
2017-11-16T06:12:09.968Z,0
2017-11-16T06:13:11.675Z,0
2017-11-16T06:14:13.379Z,0
2017-11-16T06:15:14.812Z,0
2017-11-16T06:16:16.493Z,0
2017-11-16T06:17:18.134Z,0
2017-11-16T06:18:19.909Z,0
2017-11-16T06:19:21.632Z,0
2017-11-16T06:20:23.361Z,0
2017-11-16T06:21:25.083Z,0
2017-11-16T06:22:26.581Z,0
2017-11-16T06:23:30.780Z,0
2017-11-16T06:24:32.523Z,0
2017-11-16T06:25:34.245Z,0
2017-11-16T06:26:35.655Z,0
2017-11-16T06:27:37.086Z,0
2017-11-16T06:28:38.695Z,0
2017-11-16T06:29:40.477Z,0
2017-11-16T06:30:42.200Z,0
2017-11-16T06:31:43.914Z,0
2017-11-16T06:32:45.596Z,0
2017-11-16T06:33:47.287Z,0
2017-11-16T06:34:48.936Z,0
2017-11-16T06:35:50.731Z,0
2017-11-16T06:36:52.419Z,0
2017-11-16T06:37:54.044Z,0
2017-11-16T06:38:55.729Z,5
2017-11-16T06:39:57.426Z,5
2017-11-16T06:40:59.077Z,5
2017-11-16T06:42:00.852Z,5
2017-11-16T06:43:02.437Z,5
2017-11-16T06:44:04.097Z,5
2017-11-16T06:45:05.764Z,5
2017-11-16T06:46:07.463Z,5
2017-11-16T06:47:09.169Z,5
2017-11-16T06:48:10.902Z,5
2017-11-16T06:49:12.603Z,5
2017-11-16T06:50:14.321Z,5
2017-11-16T06:51:16.014Z,5
2017-11-16T06:52:17.739Z,5
2017-11-16T06:53:19.513Z,5
2017-11-16T06:54:21.162Z,5
2017-11-16T06:55:22.935Z,5
2017-11-16T06:56:24.650Z,5
2017-11-16T06:57:26.382Z,5
2017-11-16T06:58:28.159Z,5
2017-11-16T06:59:29.668Z,5
2017-11-16T07:00:31.129Z,10
2017-11-16T07:01:32.874Z,10
2017-11-16T07:02:34.675Z,10
2017-11-16T07:03:36.399Z,10
2017-11-16T07:04:38.114Z,10
2017-11-16T07:05:39.871Z,15
2017-11-16T07:06:41.512Z,15
2017-11-16T07:07:43.233Z,15
2017-11-16T07:08:44.647Z,15
2017-11-16T07:09:46.104Z,15
2017-11-16T07:10:47.524Z,15
2017-11-16T07:11:48.989Z,20
2017-11-16T07:12:50.495Z,20
2017-11-16T07:13:51.973Z,20
2017-11-16T07:14:53.411Z,20
2017-11-16T07:15:54.874Z,25
2017-11-16T07:16:56.587Z,25
2017-11-16T07:17:58.341Z,25
2017-11-16T07:19:00.044Z,25
2017-11-16T07:20:01.782Z,25
2017-11-16T07:21:03.240Z,25
2017-11-16T07:22:05.052Z,20
2017-11-16T07:23:06.758Z,20
2017-11-16T07:24:08.483Z,20
2017-11-16T07:25:09.935Z,20
2017-11-16T07:26:11.595Z,20
2017-11-16T07:27:13.337Z,20
2017-11-16T07:28:15.060Z,25
2017-11-16T07:29:16.760Z,25
2017-11-16T07:30:18.475Z,25
2017-11-16T07:31:19.918Z,30
2017-11-16T07:32:21.613Z,30
2017-11-16T07:33:23.273Z,30
2017-11-16T07:34:25.033Z,35
2017-11-16T07:35:26.486Z,35
2017-11-16T07:36:27.995Z,35
2017-11-16T07:37:29.761Z,35
2017-11-16T07:38:31.419Z,40
2017-11-16T07:39:33.108Z,40
2017-11-16T07:40:34.841Z,40
2017-11-16T07:41:36.510Z,45
2017-11-16T07:42:38.279Z,50
2017-11-16T07:43:39.696Z,55
2017-11-16T07:44:41.153Z,55
2017-11-16T07:45:42.605Z,55
2017-11-16T07:46:44.106Z,60
2017-11-16T07:47:45.846Z,60
2017-11-16T07:48:47.552Z,55
2017-11-16T07:49:48.940Z,55
2017-11-16T07:50:50.713Z,55
2017-11-16T07:51:52.420Z,55
2017-11-16T07:52:54.213Z,55
2017-11-16T07:53:55.892Z,55
2017-11-16T07:54:57.505Z,55
2017-11-16T07:55:59.253Z,60
2017-11-16T07:57:00.888Z,60
2017-11-16T07:58:02.541Z,65
2017-11-16T07:59:04.210Z,70
2017-11-16T08:00:05.695Z,75
2017-11-16T08:01:07.188Z,80
2017-11-16T08:02:08.933Z,80
2017-11-16T08:03:10.403Z,80
2017-11-16T08:04:12.114Z,75
2017-11-16T08:05:13.814Z,75
2017-11-16T08:06:15.480Z,75
2017-11-16T08:07:16.949Z,75
2017-11-16T08:08:18.486Z,75
2017-11-16T08:09:20.125Z,75
2017-11-16T08:10:21.800Z,75
2017-11-16T08:11:23.539Z,75
2017-11-16T08:12:25.241Z,75
2017-11-16T08:13:26.904Z,75
2017-11-16T08:14:28.732Z,75
2017-11-16T08:15:30.509Z,80
2017-11-16T08:16:32.267Z,80
2017-11-16T08:17:34.001Z,85
2017-11-16T08:18:35.723Z,85
2017-11-16T08:19:37.243Z,85
2017-11-16T08:20:38.892Z,90
2017-11-16T08:21:40.567Z,90
2017-11-16T08:22:42.261Z,85
2017-11-16T08:23:43.999Z,85
2017-11-16T08:24:45.713Z,85
2017-11-16T08:25:47.399Z,90
2017-11-16T08:26:49.111Z,90
2017-11-16T08:27:50.560Z,90
2017-11-16T08:28:52.067Z,90
2017-11-16T08:29:53.502Z,90
2017-11-16T08:30:55.264Z,90
2017-11-16T08:31:56.692Z,95
2017-11-16T08:32:58.182Z,95
2017-11-16T08:33:59.871Z,100
2017-11-16T08:35:01.654Z,100
2017-11-16T08:36:03.150Z,105
2017-11-16T08:37:04.891Z,105
2017-11-16T08:38:06.376Z,105
2017-11-16T08:39:07.943Z,100
2017-11-16T08:40:09.634Z,100
2017-11-16T08:41:11.371Z,95
2017-11-16T08:42:13.096Z,90
2017-11-16T08:43:14.505Z,90
2017-11-16T08:44:15.971Z,85
2017-11-16T08:45:17.869Z,80
2017-11-16T08:46:19.596Z,75
2017-11-16T08:47:21.025Z,70
2017-11-16T08:48:22.463Z,65
2017-11-16T08:49:23.908Z,65
2017-11-16T08:50:25.396Z,70
2017-11-16T08:51:26.828Z,70
2017-11-16T08:52:28.552Z,65
2017-11-16T08:53:30.328Z,65
2017-11-16T08:54:31.761Z,60
2017-11-16T08:55:33.246Z,55
2017-11-16T08:56:35.059Z,55
2017-11-16T08:57:36.710Z,55
2017-11-16T08:58:38.392Z,60
2017-11-16T08:59:39.877Z,65
2017-11-16T09:00:41.348Z,70
2017-11-16T09:01:43.132Z,75
2017-11-16T09:02:44.865Z,80
2017-11-16T09:03:46.554Z,85
2017-11-16T09:04:48.088Z,85
2017-11-16T09:05:49.541Z,90
2017-11-16T09:06:51.009Z,95
2017-11-16T09:07:52.454Z,95
2017-11-16T09:08:54.073Z,95
2017-11-16T09:09:55.819Z,90
2017-11-16T09:10:57.548Z,95
2017-11-16T09:11:59.282Z,105
2017-11-16T09:13:00.780Z,115
2017-11-16T09:14:02.477Z,120
2017-11-16T09:15:03.961Z,120
2017-11-16T09:16:05.644Z,115
2017-11-16T09:17:07.104Z,115
2017-11-16T09:18:08.863Z,115
2017-11-16T09:19:10.560Z,120
2017-11-16T09:20:12.334Z,125
2017-11-16T09:21:13.993Z,130
2017-11-16T09:22:15.448Z,135
2017-11-16T09:23:17.104Z,130
2017-11-16T09:24:18.793Z,130
2017-11-16T09:25:20.524Z,125
2017-11-16T09:26:22.257Z,120
2017-11-16T09:27:23.983Z,125
2017-11-16T09:28:25.645Z,130
2017-11-16T09:29:27.363Z,140
2017-11-16T09:30:28.827Z,150
2017-11-16T09:31:30.461Z,155
2017-11-16T09:32:32.172Z,155
2017-11-16T09:33:33.859Z,155
2017-11-16T09:34:35.521Z,155
2017-11-16T09:35:36.991Z,150
2017-11-16T09:36:38.719Z,150
2017-11-16T09:37:40.142Z,150
2017-11-16T09:38:41.590Z,150
2017-11-16T09:39:43.320Z,145
2017-11-16T09:40:45.100Z,140
2017-11-16T09:41:46.508Z,135
2017-11-16T09:42:47.964Z,130
2017-11-16T09:43:49.600Z,135
2017-11-16T09:44:51.315Z,140
2017-11-16T09:45:52.768Z,145
2017-11-16T09:46:54.217Z,155
2017-11-16T09:47:55.649Z,160
2017-11-16T09:48:57.088Z,165
2017-11-16T09:49:58.620Z,165
2017-11-16T09:51:00.059Z,165
2017-11-16T09:52:01.730Z,160
2017-11-16T09:53:03.445Z,155
2017-11-16T09:54:04.877Z,155
2017-11-16T09:55:06.628Z,160
2017-11-16T09:56:08.361Z,165
2017-11-16T09:57:09.797Z,170
2017-11-16T09:58:11.222Z,175
2017-11-16T09:59:12.885Z,175
2017-11-16T10:00:14.557Z,180
2017-11-16T10:01:16.051Z,180
2017-11-16T10:02:17.487Z,185
2017-11-16T10:03:19.193Z,180
2017-11-16T10:04:20.677Z,180
2017-11-16T10:05:22.264Z,170
2017-11-16T10:06:24.005Z,170
2017-11-16T10:07:25.727Z,170
2017-11-16T10:08:27.416Z,170
2017-11-16T10:09:29.157Z,165
2017-11-16T10:10:30.925Z,170
2017-11-16T10:11:32.380Z,180
2017-11-16T10:12:34.022Z,205
2017-11-16T10:13:35.921Z,225
2017-11-16T10:14:37.588Z,245
2017-11-16T10:15:39.333Z,250
2017-11-16T10:16:41.094Z,255
2017-11-16T10:17:42.785Z,265
2017-11-16T10:18:44.252Z,260
2017-11-16T10:19:45.740Z,255
2017-11-16T10:20:47.246Z,235
2017-11-16T10:21:48.726Z,215
2017-11-16T10:22:50.193Z,195
2017-11-16T10:23:51.909Z,180
2017-11-16T10:24:53.662Z,180
2017-11-16T10:25:55.450Z,180
2017-11-16T10:26:56.880Z,195
2017-11-16T10:27:58.381Z,215
2017-11-16T10:28:59.906Z,235
2017-11-16T10:30:01.441Z,260
2017-11-16T10:31:02.909Z,285
2017-11-16T10:32:04.590Z,290
2017-11-16T10:33:06.266Z,280
2017-11-16T10:34:08.020Z,270
2017-11-16T10:35:09.485Z,255
2017-11-16T10:36:10.895Z,245
2017-11-16T10:37:12.569Z,230
2017-11-16T10:38:14.261Z,220
2017-11-16T10:39:15.717Z,220
2017-11-16T10:40:17.188Z,235
2017-11-16T10:41:18.943Z,250
2017-11-16T10:42:20.673Z,245
2017-11-16T10:43:22.438Z,215
2017-11-16T10:44:24.162Z,205
2017-11-16T10:45:25.921Z,240
2017-11-16T10:46:27.673Z,290
2017-11-16T10:47:29.408Z,355
2017-11-16T10:48:30.884Z,375
2017-11-16T10:49:32.313Z,395
2017-11-16T10:50:33.832Z,400
2017-11-16T10:51:35.307Z,415
2017-11-16T10:52:36.748Z,415
2017-11-16T10:53:38.255Z,415
2017-11-16T10:54:39.688Z,435
2017-11-16T10:55:41.314Z,455
2017-11-16T10:56:43.037Z,440
2017-11-16T10:57:44.774Z,400
2017-11-16T10:58:46.439Z,350
2017-11-16T10:59:48.090Z,305
2017-11-16T11:00:49.767Z,280
2017-11-16T11:01:51.510Z,260
2017-11-16T11:02:53.310Z,235
2017-11-16T11:03:55.034Z,215
2017-11-16T11:04:56.747Z,205
2017-11-16T11:05:58.528Z,210
2017-11-16T11:07:00.256Z,210
2017-11-16T11:08:01.741Z,210
2017-11-16T11:09:03.503Z,210
2017-11-16T11:10:04.941Z,215
2017-11-16T11:11:06.410Z,245
2017-11-16T11:12:07.829Z,270
2017-11-16T11:13:09.333Z,270
2017-11-16T11:14:10.984Z,260
2017-11-16T11:15:12.453Z,260
2017-11-16T11:16:13.983Z,270
2017-11-16T11:17:15.748Z,320
2017-11-16T11:18:17.416Z,360
2017-11-16T11:19:18.865Z,360
2017-11-16T11:20:20.367Z,360
2017-11-16T11:21:21.995Z,345
2017-11-16T11:22:23.690Z,350
2017-11-16T11:23:25.417Z,330
2017-11-16T11:24:27.285Z,300
2017-11-16T11:25:28.959Z,300
2017-11-16T11:26:30.456Z,320
2017-11-16T11:27:32.132Z,330
2017-11-16T11:28:33.844Z,310
2017-11-16T11:29:35.295Z,270
2017-11-16T11:30:36.814Z,250
2017-11-16T11:31:38.777Z,240
2017-11-16T11:32:40.498Z,240
2017-11-16T11:33:41.904Z,250
2017-11-16T11:34:43.401Z,260
2017-11-16T11:35:44.862Z,275
2017-11-16T11:36:46.539Z,295
2017-11-16T11:37:48.266Z,295
2017-11-16T11:38:49.896Z,275
2017-11-16T11:39:51.371Z,265
2017-11-16T11:40:52.796Z,275
2017-11-16T11:41:54.630Z,280
2017-11-16T11:42:56.429Z,280
2017-11-16T11:43:58.138Z,285
2017-11-16T11:44:59.638Z,295
2017-11-16T11:46:01.289Z,295
2017-11-16T11:47:03.403Z,315
2017-11-16T11:48:04.893Z,340
2017-11-16T11:49:06.351Z,360
2017-11-16T11:50:08.080Z,380
2017-11-16T11:51:09.541Z,380
2017-11-16T11:52:11.000Z,380
2017-11-16T11:53:12.635Z,370
2017-11-16T11:54:14.310Z,350
2017-11-16T11:55:16.302Z,340
2017-11-16T11:56:17.712Z,350
2017-11-16T11:57:19.377Z,360
2017-11-16T11:58:21.091Z,355
2017-11-16T11:59:22.838Z,340
2017-11-16T12:00:24.298Z,315
2017-11-16T12:01:25.982Z,280
2017-11-16T12:02:28.333Z,260
2017-11-16T12:03:29.815Z,260
2017-11-16T12:04:31.283Z,250
2017-11-16T12:05:32.719Z,245
2017-11-16T12:06:34.275Z,240
2017-11-16T12:07:35.716Z,220
2017-11-16T12:08:37.184Z,210
2017-11-16T12:09:38.835Z,210
2017-11-16T12:10:40.535Z,215
2017-11-16T12:11:42.221Z,215
2017-11-16T12:12:43.906Z,210
2017-11-16T12:13:45.640Z,210
2017-11-16T12:14:47.334Z,205
2017-11-16T12:15:49.031Z,195
2017-11-16T12:16:50.714Z,205
2017-11-16T12:17:52.392Z,215
2017-11-16T12:18:54.144Z,215
2017-11-16T12:19:55.890Z,205
2017-11-16T12:20:57.570Z,195
2017-11-16T12:21:59.335Z,195
2017-11-16T12:23:01.007Z,205
2017-11-16T12:24:02.695Z,220
2017-11-16T12:25:04.167Z,225
2017-11-16T12:26:05.592Z,220
2017-11-16T12:27:07.051Z,210
2017-11-16T12:28:08.602Z,215
2017-11-16T12:29:10.107Z,235
2017-11-16T12:30:11.572Z,270
2017-11-16T12:31:13.018Z,305
2017-11-16T12:32:14.479Z,320
2017-11-16T12:33:16.087Z,315
2017-11-16T12:34:17.778Z,305
2017-11-16T12:35:19.475Z,290
2017-11-16T12:36:21.266Z,280
2017-11-16T12:37:23.000Z,270
2017-11-16T12:38:24.701Z,270
2017-11-16T12:39:26.481Z,270
2017-11-16T12:40:28.012Z,275
2017-11-16T12:41:29.493Z,275
2017-11-16T12:42:30.982Z,270
2017-11-16T12:43:32.486Z,265
2017-11-16T12:44:34.052Z,260
2017-11-16T12:45:35.529Z,260
2017-11-16T12:46:36.994Z,255
2017-11-16T12:47:38.641Z,245
2017-11-16T12:48:40.340Z,240
2017-11-16T12:49:42.070Z,235
2017-11-16T12:50:43.833Z,235
2017-11-16T12:51:45.528Z,230
2017-11-16T12:52:47.281Z,225
2017-11-16T12:53:49.039Z,235
2017-11-16T12:54:50.776Z,250
2017-11-16T12:55:52.424Z,280
2017-11-16T12:56:53.907Z,300
2017-11-16T12:57:55.382Z,325
2017-11-16T12:58:56.863Z,345
2017-11-16T12:59:58.492Z,370
2017-11-16T13:01:00.159Z,400
2017-11-16T13:02:01.638Z,405
2017-11-16T13:03:03.247Z,405
2017-11-16T13:04:04.695Z,390
2017-11-16T13:05:06.171Z,360
2017-11-16T13:06:07.792Z,330
2017-11-16T13:07:09.599Z,325
2017-11-16T13:08:11.330Z,340
2017-11-16T13:09:13.090Z,360
2017-11-16T13:10:14.921Z,375
2017-11-16T13:11:16.649Z,395
2017-11-16T13:12:18.422Z,410
2017-11-16T13:13:19.859Z,415
2017-11-16T13:14:21.306Z,470
2017-11-16T13:15:23.084Z,440
2017-11-16T13:16:24.819Z,430
2017-11-16T13:17:26.514Z,420
2017-11-16T13:18:28.232Z,425
2017-11-16T13:19:29.988Z,460
2017-11-16T13:20:31.533Z,490
2017-11-16T13:21:33.235Z,420
2017-11-16T13:22:34.948Z,380
2017-11-16T13:23:36.621Z,370
2017-11-16T13:24:38.099Z,365
2017-11-16T13:25:39.860Z,365
2017-11-16T13:26:41.276Z,370
2017-11-16T13:27:42.883Z,365
2017-11-16T13:28:44.565Z,355
2017-11-16T13:29:46.379Z,350
2017-11-16T13:30:47.860Z,340
2017-11-16T13:31:49.405Z,330
2017-11-16T13:32:51.175Z,310
2017-11-16T13:33:52.889Z,295
2017-11-16T13:34:54.527Z,280
2017-11-16T13:35:55.962Z,270
2017-11-16T13:36:57.530Z,260
2017-11-16T13:37:59.018Z,245
2017-11-16T13:39:00.753Z,230
2017-11-16T13:40:02.224Z,215
2017-11-16T13:41:03.972Z,205
2017-11-16T13:42:05.727Z,200
2017-11-16T13:43:07.448Z,195
2017-11-16T13:44:09.150Z,195
2017-11-16T13:45:10.870Z,185
2017-11-16T13:46:12.622Z,180
2017-11-16T13:47:14.459Z,175
2017-11-16T13:48:16.228Z,170
2017-11-16T13:49:17.711Z,160
2017-11-16T13:50:19.158Z,155
2017-11-16T13:51:20.932Z,155
2017-11-16T13:52:22.382Z,160
2017-11-16T13:53:23.871Z,165
2017-11-16T13:54:25.351Z,175
2017-11-16T13:55:26.801Z,175
2017-11-16T13:56:28.525Z,165
2017-11-16T13:57:30.207Z,160
2017-11-16T13:58:31.757Z,150
2017-11-16T13:59:33.220Z,145
2017-11-16T14:00:34.904Z,130
2017-11-16T14:01:36.643Z,115
2017-11-16T14:02:38.094Z,115
2017-11-16T14:03:39.572Z,115
2017-11-16T14:04:41.133Z,110
2017-11-16T14:05:42.759Z,110
2017-11-16T14:06:44.508Z,105
2017-11-16T14:07:46.252Z,100
2017-11-16T14:08:48.006Z,95
2017-11-16T14:09:49.786Z,90
2017-11-16T14:10:51.451Z,85
2017-11-16T14:11:52.947Z,85
2017-11-16T14:12:54.395Z,85
2017-11-16T14:13:55.824Z,90
2017-11-16T14:14:57.251Z,80
2017-11-16T14:15:58.742Z,80
2017-11-16T14:17:00.217Z,75
2017-11-16T14:18:01.676Z,75
2017-11-16T14:19:03.123Z,75
2017-11-16T14:20:04.593Z,80
2017-11-16T14:21:06.038Z,85
2017-11-16T14:22:07.717Z,90
2017-11-16T14:23:09.616Z,90
2017-11-16T14:24:11.289Z,100
2017-11-16T14:25:13.067Z,120
2017-11-16T14:26:14.580Z,135
2017-11-16T14:27:16.138Z,140
2017-11-16T14:28:17.568Z,135
2017-11-16T14:29:19.049Z,125
2017-11-16T14:30:20.496Z,115
2017-11-16T14:31:21.963Z,110
2017-11-16T14:32:23.424Z,100
2017-11-16T14:33:24.915Z,100
2017-11-16T14:34:26.424Z,105
2017-11-16T14:35:28.114Z,105
2017-11-16T14:36:29.914Z,100
2017-11-16T14:37:31.575Z,90
2017-11-16T14:38:33.339Z,80
2017-11-16T14:39:35.094Z,80
2017-11-16T14:40:36.521Z,75
2017-11-16T14:41:37.929Z,75
2017-11-16T14:42:39.591Z,75
2017-11-16T14:43:41.252Z,75